Time;durP1;ratioP1;P1;durP2;ratioP2;P2;SDS_P1;SDS_P2;PMS_P1;PMS_P2;Temp;Humidity;BMP_temperature;BMP_pressure;BME280_temperature;BME280_humidity;BME280_pressure;Samples;Min_cycle;Max_cycle;Signal;HPM_P1;HPM_P2
2022/06/23 00:00:18;;;;;;;8.63;7.10;;;24.30;99.90;;;;;;5055429;28;20531;-66
2022/06/23 00:02:47;;;;;;;9.53;7.87;;;24.20;99.90;;;;;;5055987;28;20495;-64
2022/06/23 00:05:18;;;;;;;10.60;7.27;;;24.10;99.90;;;;;;5055809;28;20481;-67
2022/06/23 00:07:51;;;;;;;12.60;6.90;;;24.20;99.90;;;;;;5055221;28;21105;-66
2022/06/23 00:10:21;;;;;;;12.47;7.63;;;24.20;99.90;;;;;;5055242;28;20441;-65
2022/06/23 00:12:48;;;;;;;15.60;6.90;;;24.20;99.90;;;;;;5052807;28;20446;-67
2022/06/23 00:15:20;;;;;;;10.97;6.97;;;24.30;99.90;;;;;;5052169;28;20501;-67
2022/06/23 00:17:58;;;;;;;10.37;6.47;;;24.20;99.90;;;;;;5052403;28;20508;-67
2022/06/23 00:20:31;;;;;;;10.50;7.47;;;24.30;99.90;;;;;;5051984;28;20547;-67
2022/06/23 00:23:04;;;;;;;11.07;7.83;;;24.30;99.90;;;;;;5052465;28;20508;-65
2022/06/23 00:25:41;;;;;;;8.77;7.23;;;24.30;99.90;;;;;;5052357;28;20523;-64
2022/06/23 00:28:18;;;;;;;12.70;7.57;;;24.30;99.90;;;;;;5052262;28;20519;-66
2022/06/23 00:30:50;;;;;;;10.77;7.73;;;24.30;99.90;;;;;;5051528;28;20454;-66
2022/06/23 00:33:22;;;;;;;10.40;7.50;;;24.30;99.90;;;;;;5051817;28;20458;-66
2022/06/23 00:35:51;;;;;;;10.40;7.70;;;24.20;99.90;;;;;;5052053;28;20477;-65
2022/06/23 00:38:22;;;;;;;13.00;7.23;;;24.30;99.90;;;;;;5052030;28;20915;-66
2022/06/23 00:40:49;;;;;;;11.33;7.73;;;24.30;99.90;;;;;;5052094;28;20482;-66
2022/06/23 00:43:17;;;;;;;11.03;8.00;;;24.30;99.90;;;;;;5051904;28;20545;-66
2022/06/23 00:45:49;;;;;;;13.63;7.33;;;24.30;99.90;;;;;;5051948;28;20502;-66
2022/06/23 00:48:23;;;;;;;10.50;8.50;;;24.30;99.90;;;;;;5052072;28;20485;-65
2022/06/23 00:50:55;;;;;;;10.40;8.13;;;24.20;99.90;;;;;;5052023;28;20449;-64
2022/06/23 00:53:29;;;;;;;11.93;7.93;;;24.30;99.90;;;;;;5050835;28;20552;-64
2022/06/23 00:56:04;;;;;;;11.97;7.90;;;24.30;99.90;;;;;;5051069;28;20474;-65
2022/06/23 00:58:40;;;;;;;9.87;7.93;;;24.30;99.90;;;;;;5051853;28;20457;-66
2022/06/23 01:01:16;;;;;;;17.27;7.50;;;24.10;99.90;;;;;;5051284;28;20528;-66
2022/06/23 01:03:53;;;;;;;10.70;8.13;;;24.20;99.90;;;;;;5051217;28;20453;-66
2022/06/23 01:06:26;;;;;;;12.40;8.80;;;24.10;99.90;;;;;;5051005;28;20546;-66
2022/06/23 01:08:57;;;;;;;11.80;8.20;;;24.00;99.90;;;;;;5051127;28;21260;-65
2022/06/23 01:11:29;;;;;;;11.93;8.47;;;23.90;99.90;;;;;;5050820;28;20523;-66
2022/06/23 01:14:08;;;;;;;12.43;7.93;;;23.90;99.90;;;;;;5050909;28;20534;-66
2022/06/23 01:16:43;;;;;;;11.50;8.10;;;23.90;99.90;;;;;;5050461;28;20942;-65
2022/06/23 01:19:32;;;;;;;11.83;7.70;;;23.90;99.90;;;;;;5051053;28;20465;-66
2022/06/23 01:22:04;;;;;;;10.80;8.07;;;23.80;99.90;;;;;;5049832;28;20862;-65
2022/06/23 01:24:38;;;;;;;12.23;7.90;;;23.60;99.90;;;;;;5049807;28;20490;-65
2022/06/23 01:27:25;;;;;;;13.00;8.33;;;23.60;99.90;;;;;;5051426;28;20450;-65
2022/06/23 01:29:58;;;;;;;8.67;7.70;;;23.60;99.90;;;;;;5051303;28;20504;-66
2022/06/23 01:32:28;;;;;;;12.70;8.90;;;23.60;99.90;;;;;;5051023;28;20458;-65
2022/06/23 01:35:00;;;;;;;13.60;7.60;;;23.60;99.90;;;;;;5051014;28;20895;-66
2022/06/23 01:37:31;;;;;;;11.10;8.53;;;23.60;99.90;;;;;;5050743;28;20542;-66
2022/06/23 01:40:06;;;;;;;11.93;9.10;;;23.60;99.90;;;;;;5050821;28;20497;-66
2022/06/23 01:42:40;;;;;;;15.47;8.37;;;23.50;99.90;;;;;;5050488;28;20458;-66
2022/06/23 01:45:16;;;;;;;13.13;9.10;;;23.50;99.90;;;;;;5050550;28;20481;-66
2022/06/23 01:47:50;;;;;;;11.33;8.73;;;23.40;99.90;;;;;;5051008;28;20453;-66
2022/06/23 01:50:31;;;;;;;13.27;8.27;;;23.30;99.90;;;;;;5050307;28;20848;-65
2022/06/23 01:53:13;;;;;;;10.37;8.87;;;23.10;99.90;;;;;;5049974;28;20547;-67
2022/06/23 01:56:13;;;;;;;11.43;8.93;;;23.00;99.90;;;;;;5050234;28;20960;-66
2022/06/23 01:58:51;;;;;;;11.13;8.30;;;23.10;99.90;;;;;;5049427;28;20785;-66
2022/06/23 02:01:27;;;;;;;9.07;7.40;;;23.10;99.90;;;;;;5049868;28;20484;-66
2022/06/23 02:04:01;;;;;;;10.50;8.30;;;23.00;99.90;;;;;;5050411;28;20511;-67
2022/06/23 02:06:32;;;;;;;12.60;8.57;;;23.00;99.90;;;;;;5049935;28;20485;-65
2022/06/23 02:09:11;;;;;;;11.50;8.97;;;22.90;99.90;;;;;;5049805;28;20458;-65
2022/06/23 02:11:45;;;;;;;12.00;7.43;;;23.00;99.90;;;;;;5050511;28;20454;-66
2022/06/23 02:14:21;;;;;;;12.10;8.40;;;23.00;99.90;;;;;;5050128;28;20551;-64
2022/06/23 02:16:57;;;;;;;14.77;8.00;;;23.00;99.90;;;;;;5050030;28;20512;-66
2022/06/23 02:19:34;;;;;;;11.10;8.73;;;23.00;99.90;;;;;;5050124;28;20450;-67
2022/06/23 02:22:10;;;;;;;13.27;9.40;;;23.00;99.90;;;;;;5050253;28;20795;-65
2022/06/23 02:24:47;;;;;;;17.80;9.13;;;23.00;99.90;;;;;;5049433;28;20992;-66
2022/06/23 02:27:19;;;;;;;11.70;9.60;;;23.10;99.90;;;;;;5049311;28;20465;-66
2022/06/23 02:29:53;;;;;;;12.20;8.73;;;23.10;99.90;;;;;;5049619;28;20837;-66
2022/06/23 02:32:28;;;;;;;11.60;9.80;;;23.10;99.90;;;;;;5049592;28;20445;-66
2022/06/23 02:35:01;;;;;;;11.63;8.73;;;23.10;99.90;;;;;;5049377;28;20478;-65
2022/06/23 02:37:56;;;;;;;15.53;10.00;;;23.10;99.90;;;;;;5049619;28;20462;-65
2022/06/23 02:40:30;;;;;;;14.13;9.30;;;23.10;99.90;;;;;;5049734;28;20486;-66
2022/06/23 02:43:02;;;;;;;12.03;9.13;;;23.10;99.90;;;;;;5049848;28;20837;-65
2022/06/23 02:46:08;;;;;;;12.20;9.00;;;23.20;99.90;;;;;;5049037;28;20998;-65
2022/06/23 02:49:08;;;;;;;11.97;9.30;;;22.90;99.90;;;;;;5029107;28;20451;-66
2022/06/23 02:52:06;;;;;;;16.20;11.67;;;22.80;99.90;;;;;;5029498;28;20443;-66
2022/06/23 02:54:51;;;;;;;14.47;10.00;;;22.80;99.90;;;;;;5021073;28;20581;-66
2022/06/23 02:57:37;;;;;;;13.73;10.33;;;22.80;99.90;;;;;;5030035;28;20455;-67
2022/06/23 03:00:14;;;;;;;13.53;10.47;;;22.90;99.90;;;;;;5029973;28;20490;-65
2022/06/23 03:02:48;;;;;;;11.70;9.37;;;23.00;99.90;;;;;;5045631;28;20488;-66
2022/06/23 03:05:25;;;;;;;10.70;9.43;;;23.00;99.90;;;;;;5049048;28;20462;-65
2022/06/23 03:08:00;;;;;;;14.30;10.50;;;23.00;99.90;;;;;;5029272;28;20458;-66
2022/06/23 03:10:33;;;;;;;13.87;10.37;;;22.90;99.90;;;;;;5029761;28;20453;-66
2022/06/23 03:13:10;;;;;;;17.50;10.93;;;22.90;99.90;;;;;;5029902;28;20857;-66
2022/06/23 03:15:48;;;;;;;14.23;10.27;;;22.90;99.90;;;;;;5029050;28;20873;-66
2022/06/23 03:18:21;;;;;;;14.53;10.50;;;22.90;99.90;;;;;;5029864;28;20523;-67
2022/06/23 03:20:54;;;;;;;12.63;10.80;;;22.60;99.90;;;;;;5035006;28;20824;-67
2022/06/23 03:23:27;;;;;;;12.33;9.57;;;22.50;99.90;;;;;;5049463;28;20450;-67
2022/06/23 03:26:08;;;;;;;11.53;9.80;;;22.40;99.90;;;;;;5049001;28;20547;-65
2022/06/23 03:28:45;;;;;;;12.10;9.50;;;22.50;99.90;;;;;;5048671;28;20548;-65
2022/06/23 03:31:19;;;;;;;12.13;10.20;;;22.50;99.90;;;;;;5049057;28;20515;-67
2022/06/23 03:33:51;;;;;;;14.30;9.33;;;22.60;99.90;;;;;;5049098;28;20461;-66
2022/06/23 03:36:25;;;;;;;13.17;9.53;;;22.50;99.90;;;;;;5049023;28;20931;-66
2022/06/23 03:41:48;;;;;;;11.97;10.17;;;22.50;99.90;;;;;;5029414;28;20470;-65
2022/06/23 03:44:21;;;;;;;13.10;11.10;;;22.60;99.90;;;;;;5029506;28;20479;-65
2022/06/23 03:46:53;;;;;;;12.80;9.93;;;22.50;99.90;;;;;;5029531;28;20537;-65
2022/06/23 03:49:42;;;;;;;14.37;10.43;;;22.50;99.90;;;;;;5032810;28;20462;-65
2022/06/23 03:52:21;;;;;;;18.23;9.57;;;22.40;99.90;;;;;;5051714;28;20450;-66
2022/06/23 03:54:52;;;;;;;15.63;10.50;;;22.40;99.90;;;;;;5052530;28;21098;-66
2022/06/23 03:57:23;;;;;;;19.43;11.10;;;22.40;99.90;;;;;;5052035;28;20990;-67
2022/06/23 04:00:12;;;;;;;12.60;10.50;;;22.50;99.90;;;;;;5051979;28;20458;-65
2022/06/23 04:02:43;;;;;;;13.53;10.43;;;22.60;99.90;;;;;;5031297;28;20958;-67
2022/06/23 04:05:17;;;;;;;14.13;12.20;;;22.50;99.90;;;;;;5032111;28;20486;-67
2022/06/23 04:07:50;;;;;;;19.03;10.43;;;22.50;99.90;;;;;;5050970;28;20549;-67
2022/06/23 04:10:25;;;;;;;14.93;11.37;;;22.50;99.90;;;;;;5052265;28;20883;-66
2022/06/23 04:12:56;;;;;;;16.23;10.80;;;22.60;99.90;;;;;;5052102;28;20449;-66
2022/06/23 04:15:28;;;;;;;14.77;10.90;;;22.60;99.90;;;;;;5048987;28;20575;-66
2022/06/23 04:18:01;;;;;;;15.40;12.00;;;22.70;99.90;;;;;;5051650;28;20540;-66
2022/06/23 04:20:33;;;;;;;17.80;11.13;;;22.70;99.90;;;;;;5052450;28;20521;-66
2022/06/23 04:23:05;;;;;;;15.90;11.77;;;22.80;99.90;;;;;;5052531;28;20931;-65
2022/06/23 04:25:47;;;;;;;14.67;12.37;;;22.80;99.90;;;;;;5052525;28;20477;-66
2022/06/23 04:28:24;;;;;;;15.80;11.90;;;22.80;99.90;;;;;;5052279;28;20808;-66
2022/06/23 04:30:54;;;;;;;16.33;11.43;;;22.90;99.90;;;;;;5051677;28;21042;-66
2022/06/23 04:33:24;;;;;;;13.83;12.43;;;22.90;99.90;;;;;;5051266;28;20446;-66
2022/06/23 04:35:54;;;;;;;16.00;12.50;;;22.80;99.90;;;;;;5049574;28;20482;-66
2022/06/23 04:38:30;;;;;;;14.17;11.53;;;22.80;99.90;;;;;;5052338;28;20454;-66
2022/06/23 04:41:03;;;;;;;14.10;11.20;;;22.80;99.90;;;;;;5050007;28;20489;-67
2022/06/23 04:43:36;;;;;;;15.07;11.67;;;22.90;99.90;;;;;;5052007;28;20457;-66
2022/06/23 04:46:09;;;;;;;13.93;12.10;;;23.00;99.90;;;;;;5051975;28;20470;-66
2022/06/23 04:48:45;;;;;;;16.57;11.63;;;22.90;99.90;;;;;;5052053;28;20503;-66
2022/06/23 04:51:26;;;;;;;19.50;12.20;;;23.00;99.90;;;;;;5052169;28;20880;-67
2022/06/23 04:54:03;;;;;;;12.37;10.17;;;23.00;99.90;;;;;;5051935;28;20543;-68
2022/06/23 04:56:47;;;;;;;15.27;11.87;;;23.10;99.90;;;;;;5052001;28;20511;-66
2022/06/23 04:59:40;;;;;;;18.50;10.70;;;23.30;99.90;;;;;;5050645;28;20450;-66
2022/06/23 05:02:21;;;;;;;16.40;11.70;;;23.40;99.90;;;;;;5037451;28;20489;-67
2022/06/23 05:04:55;;;;;;;12.30;10.17;;;23.40;99.90;;;;;;5051632;28;20470;-67
2022/06/23 05:07:28;;;;;;;13.93;10.77;;;23.50;99.90;;;;;;5051953;28;20930;-65
2022/06/23 05:10:01;;;;;;;16.83;12.60;;;23.70;99.90;;;;;;5051688;28;20453;-66
2022/06/23 05:12:31;;;;;;;14.40;11.27;;;23.70;99.90;;;;;;5051476;28;20909;-66
2022/06/23 05:15:05;;;;;;;18.57;13.20;;;23.70;99.90;;;;;;5051352;28;20478;-66
2022/06/23 05:17:35;;;;;;;16.53;10.60;;;23.80;99.90;;;;;;5051504;28;20465;-67
2022/06/23 05:20:05;;;;;;;17.17;12.03;;;23.80;99.90;;;;;;5051508;28;20458;-66
2022/06/23 05:22:35;;;;;;;19.57;11.70;;;23.90;99.90;;;;;;5051230;28;20616;-68
2022/06/23 05:25:35;;;;;;;17.90;11.00;;;24.10;99.90;;;;;;5051062;28;20470;-68
2022/06/23 05:28:05;;;;;;;15.90;12.33;;;24.30;99.90;;;;;;5051357;28;20450;-69
2022/06/23 05:30:35;;;;;;;16.00;12.87;;;24.50;99.90;;;;;;5051320;28;20457;-68
2022/06/23 05:33:07;;;;;;;17.07;12.80;;;24.40;99.90;;;;;;5050768;28;20456;-69
2022/06/23 05:35:38;;;;;;;15.00;12.00;;;24.30;99.90;;;;;;5051069;28;20478;-70
2022/06/23 05:38:09;;;;;;;15.53;12.83;;;24.30;99.90;;;;;;5051073;28;20492;-68
2022/06/23 05:40:43;;;;;;;15.90;11.90;;;24.30;99.90;;;;;;5051088;28;20511;-70
2022/06/23 05:43:12;;;;;;;17.63;11.90;;;24.40;99.90;;;;;;5050919;28;20472;-68
2022/06/23 05:45:42;;;;;;;16.23;12.30;;;24.40;99.90;;;;;;5050738;28;20474;-69
2022/06/23 05:48:15;;;;;;;15.77;13.37;;;24.40;99.90;;;;;;5050190;28;20506;-70
2022/06/23 05:50:48;;;;;;;17.93;12.37;;;24.40;99.90;;;;;;5049998;28;20511;-73
2022/06/23 05:53:21;;;;;;;17.80;12.13;;;24.30;99.90;;;;;;5050296;28;20489;-72
2022/06/23 05:55:53;;;;;;;17.13;11.23;;;24.10;99.90;;;;;;5050364;28;20986;-72
2022/06/23 05:58:25;;;;;;;17.63;11.77;;;23.90;99.90;;;;;;5050556;28;21129;-72
2022/06/23 06:00:57;;;;;;;19.47;13.10;;;23.50;99.90;;;;;;5049476;28;21272;-73
2022/06/23 06:03:29;;;;;;;18.97;10.93;;;22.80;99.90;;;;;;5047715;28;20469;-75
2022/06/23 06:06:00;;;;;;;19.63;10.80;;;21.70;99.90;;;;;;5039304;28;20481;-72
2022/06/23 06:08:32;;;;;;;16.03;10.30;;;21.20;99.90;;;;;;5047750;28;20462;-71
2022/06/23 06:11:03;;;;;;;19.87;11.00;;;20.90;99.90;;;;;;5049092;28;20461;-72
2022/06/23 06:13:35;;;;;;;14.00;10.20;;;20.80;99.90;;;;;;5045071;28;20458;-80
2022/06/23 06:16:04;;;;;;;14.33;9.80;;;20.10;99.90;;;;;;5050379;28;20568;-73
2022/06/23 06:18:34;;;;;;;15.40;10.30;;;20.00;99.90;;;;;;5050256;28;20507;-73
2022/06/23 06:21:03;;;;;;;10.90;9.57;;;19.90;99.90;;;;;;5050221;28;20485;-74
2022/06/23 06:23:39;;;;;;;13.33;10.67;;;19.60;99.90;;;;;;5050011;28;20938;-68
2022/06/23 06:26:12;;;;;;;12.63;9.33;;;19.40;99.90;;;;;;5050043;28;20861;-66
2022/06/23 06:28:39;;;;;;;12.43;9.50;;;19.60;99.90;;;;;;5050235;28;20454;-67
2022/06/23 06:31:14;;;;;;;14.00;9.57;;;19.30;99.90;;;;;;5049985;28;20851;-67
2022/06/23 06:33:54;;;;;;;12.20;10.50;;;19.20;99.90;;;;;;5049713;28;20835;-67
2022/06/23 06:36:26;;;;;;;13.40;8.63;;;19.10;99.90;;;;;;5049731;28;20480;-68
2022/06/23 06:38:59;;;;;;;15.10;9.70;;;19.10;99.90;;;;;;5049955;28;20464;-67
2022/06/23 06:41:27;;;;;;;13.03;7.00;;;19.20;99.90;;;;;;5049965;28;20526;-68
2022/06/23 06:43:54;;;;;;;9.60;6.20;;;19.10;99.90;;;;;;5049698;28;20511;-67
2022/06/23 06:46:21;;;;;;;10.30;6.70;;;19.10;99.90;;;;;;5049644;28;20449;-67
2022/06/23 06:48:48;;;;;;;11.27;7.27;;;19.20;99.90;;;;;;5049866;28;20460;-67
2022/06/23 06:51:22;;;;;;;11.10;8.00;;;19.30;99.90;;;;;;5049810;28;20450;-67
2022/06/23 06:53:54;;;;;;;9.00;6.53;;;19.50;99.90;;;;;;5049121;28;20547;-67
2022/06/23 06:56:27;;;;;;;10.80;7.50;;;19.70;99.90;;;;;;5049061;28;20454;-66
2022/06/23 06:59:00;;;;;;;9.80;8.00;;;19.90;99.90;;;;;;5049588;28;20868;-66
2022/06/23 07:01:28;;;;;;;10.27;8.17;;;20.10;99.90;;;;;;5049529;28;20497;-66
2022/06/23 07:03:56;;;;;;;9.03;7.67;;;20.10;99.90;;;;;;5049537;28;20542;-67
2022/06/23 07:06:32;;;;;;;12.97;8.40;;;20.20;99.90;;;;;;5049727;28;20545;-68
2022/06/23 07:09:04;;;;;;;13.70;8.60;;;20.40;99.90;;;;;;5049514;28;20495;-66
2022/06/23 07:11:40;;;;;;;12.03;9.57;;;20.60;99.90;;;;;;5049347;28;20483;-66
2022/06/23 07:14:16;;;;;;;12.70;9.33;;;20.70;99.90;;;;;;5049807;28;20527;-66
2022/06/23 07:16:46;;;;;;;11.30;8.40;;;20.90;99.90;;;;;;5049868;28;20449;-66
2022/06/23 07:19:18;;;;;;;10.53;7.63;;;21.00;99.90;;;;;;5049018;28;20519;-68
2022/06/23 07:21:51;;;;;;;10.73;8.40;;;21.10;99.90;;;;;;5050238;28;20489;-67
2022/06/23 07:24:23;;;;;;;10.40;7.23;;;21.10;99.90;;;;;;5053428;28;20462;-67
2022/06/23 07:26:54;;;;;;;10.23;7.03;;;21.30;99.90;;;;;;5053470;28;20805;-67
2022/06/23 07:29:40;;;;;;;11.03;7.43;;;21.30;99.90;;;;;;5053350;28;20457;-67
2022/06/23 07:32:15;;;;;;;12.20;8.20;;;21.50;99.90;;;;;;5054121;28;20449;-68
2022/06/23 07:34:48;;;;;;;10.37;7.97;;;21.50;99.90;;;;;;5053109;28;20518;-67
2022/06/23 07:37:24;;;;;;;13.70;9.10;;;21.50;99.90;;;;;;5053173;28;20453;-67
2022/06/23 07:39:56;;;;;;;16.77;9.87;;;21.70;99.90;;;;;;5053278;28;20613;-66
2022/06/23 07:42:38;;;;;;;15.70;10.73;;;22.00;99.90;;;;;;5052973;28;20493;-68
2022/06/23 07:45:14;;;;;;;11.87;10.53;;;22.20;99.90;;;;;;5053046;28;20474;-67
2022/06/23 07:47:41;;;;;;;11.70;9.10;;;22.40;99.90;;;;;;5048501;28;20453;-67
2022/06/23 07:50:10;;;;;;;16.30;11.60;;;22.60;99.90;;;;;;5052810;28;20542;-67
2022/06/23 07:52:37;;;;;;;13.67;9.73;;;22.80;99.90;;;;;;5052705;28;20462;-67
2022/06/23 07:55:05;;;;;;;16.50;11.00;;;23.10;99.90;;;;;;5052261;28;20970;-67
2022/06/23 07:57:33;;;;;;;14.13;9.40;;;23.20;99.90;;;;;;5052830;28;20462;-66
2022/06/23 08:00:04;;;;;;;12.00;8.90;;;23.20;99.90;;;;;;5052882;28;20461;-66
2022/06/23 08:02:42;;;;;;;15.37;10.00;;;23.40;99.90;;;;;;5052374;28;20491;-68
2022/06/23 08:05:14;;;;;;;12.57;8.67;;;23.40;99.90;;;;;;5051602;28;20866;-67
2022/06/23 08:07:41;;;;;;;11.13;7.53;;;23.40;99.90;;;;;;5051106;28;20446;-67
2022/06/23 08:10:12;;;;;;;8.60;7.70;;;23.50;99.90;;;;;;5051198;28;20449;-67
2022/06/23 08:12:53;;;;;;;9.77;6.93;;;23.60;99.90;;;;;;5050698;28;20840;-67
2022/06/23 08:18:14;;;;;;;10.17;5.83;;;23.80;99.90;;;;;;5051273;28;20441;-67
2022/06/23 08:20:46;;;;;;;11.30;6.40;;;24.00;99.90;;;;;;5052199;28;20540;-67
2022/06/23 08:23:15;;;;;;;7.90;5.93;;;24.10;99.90;;;;;;5052100;28;20485;-64
2022/06/23 08:25:42;;;;;;;10.47;6.97;;;24.30;99.90;;;;;;5051748;28;20540;-67
2022/06/23 08:28:10;;;;;;;8.17;5.50;;;24.70;99.90;;;;;;5052081;28;20949;-67
2022/06/23 08:30:40;;;;;;;8.13;6.00;;;24.80;99.90;;;;;;5051957;28;20966;-65
2022/06/23 08:33:09;;;;;;;8.27;5.30;;;24.70;99.90;;;;;;5051384;28;20492;-65
2022/06/23 08:35:41;;;;;;;8.53;6.07;;;24.70;99.90;;;;;;5051451;28;20473;-65
2022/06/23 08:38:10;;;;;;;10.20;6.20;;;24.70;99.90;;;;;;5052108;28;20515;-66
2022/06/23 08:40:56;;;;;;;9.60;5.80;;;24.60;99.90;;;;;;5051846;28;20460;-67
2022/06/23 08:43:30;;;;;;;8.33;6.27;;;24.70;99.90;;;;;;5051657;28;20486;-65
2022/06/23 08:46:04;;;;;;;11.77;7.20;;;25.20;99.90;;;;;;5051817;28;20514;-64
2022/06/23 08:48:40;;;;;;;10.50;7.83;;;25.30;99.90;;;;;;5051657;28;20885;-64
2022/06/23 08:51:16;;;;;;;14.40;7.73;;;25.60;99.90;;;;;;5051572;28;20460;-67
2022/06/23 08:53:52;;;;;;;14.20;7.80;;;25.60;99.90;;;;;;5051227;28;20489;-65
2022/06/23 08:56:24;;;;;;;11.20;9.37;;;25.70;99.90;;;;;;5051598;28;20505;-67
2022/06/23 08:58:56;;;;;;;11.80;8.67;;;25.80;99.90;;;;;;5051405;28;20520;-66
2022/06/23 09:01:29;;;;;;;12.87;8.93;;;26.00;99.90;;;;;;5050015;28;20461;-66
2022/06/23 09:04:07;;;;;;;12.70;9.40;;;26.30;99.90;;;;;;5051476;28;20441;-66
2022/06/23 09:06:42;;;;;;;12.40;9.43;;;26.60;99.90;;;;;;5051384;28;20503;-67
2022/06/23 09:09:22;;;;;;;11.13;8.53;;;26.70;99.90;;;;;;5051368;28;20464;-66
2022/06/23 09:11:57;;;;;;;10.20;8.03;;;26.90;99.90;;;;;;5051002;28;20503;-67
2022/06/23 09:14:49;;;;;;;12.50;9.60;;;27.00;99.90;;;;;;5050844;28;20831;-65
2022/06/23 09:17:50;;;;;;;10.70;8.80;;;27.20;99.90;;;;;;5051219;28;20462;-65
2022/06/23 09:20:42;;;;;;;12.63;9.50;;;27.50;99.90;;;;;;5047703;28;20465;-66
2022/06/23 09:23:32;;;;;;;11.17;8.90;;;27.30;99.90;;;;;;5051127;28;20493;-68
2022/06/23 09:26:06;;;;;;;10.77;8.80;;;27.80;99.90;;;;;;5050378;28;20537;-65
2022/06/23 09:28:52;;;;;;;14.60;9.77;;;27.90;99.90;;;;;;5050703;28;20545;-68
2022/06/23 09:31:22;;;;;;;12.40;9.57;;;27.50;99.90;;;;;;5050590;28;20441;-65
2022/06/23 09:34:13;;;;;;;15.10;10.10;;;27.00;99.90;;;;;;5050859;28;20527;-66
2022/06/23 09:37:01;;;;;;;12.40;8.60;;;27.20;99.90;;;;;;5050791;28;20565;-68
2022/06/23 09:39:53;;;;;;;10.70;9.23;;;27.30;99.90;;;;;;5050926;28;20454;-66
2022/06/23 09:42:59;;;;;;;14.70;8.90;;;27.50;99.90;;;;;;5049991;28;20486;-68
2022/06/23 09:45:56;;;;;;;13.40;8.90;;;27.60;99.90;;;;;;5037169;28;20516;-67
2022/06/23 09:49:02;;;;;;;10.57;7.83;;;27.70;99.90;;;;;;5047974;28;20539;-67
2022/06/23 09:52:02;;;;;;;10.97;7.50;;;27.80;99.90;;;;;;5050667;28;20458;-67
2022/06/23 09:54:57;;;;;;;8.63;6.33;;;28.00;99.90;;;;;;5049995;28;20485;-66
2022/06/23 09:57:47;;;;;;;10.00;7.80;;;28.10;99.90;;;;;;5050545;28;20524;-70
2022/06/23 10:00:18;;;;;;;11.43;8.90;;;28.20;99.90;;;;;;5049903;28;20941;-68
2022/06/23 10:03:04;;;;;;;12.23;8.30;;;28.00;99.90;;;;;;5048261;28;20548;-70
2022/06/23 10:05:59;;;;;;;12.37;9.97;;;27.90;99.90;;;;;;5049206;28;20465;-67
2022/06/23 10:08:41;;;;;;;17.47;9.50;;;27.80;99.90;;;;;;5048783;28;20477;-67
2022/06/23 10:11:30;;;;;;;11.47;7.67;;;28.10;99.90;;;;;;5039020;28;21185;-66
2022/06/23 10:14:18;;;;;;;15.47;8.87;;;28.60;99.90;;;;;;5042954;28;20438;-67
2022/06/23 10:17:20;;;;;;;11.43;7.60;;;29.10;99.90;;;;;;5047264;28;20532;-67
2022/06/23 10:19:58;;;;;;;11.10;7.57;;;29.20;99.90;;;;;;5050442;28;20449;-68
2022/06/23 10:22:42;;;;;;;12.87;7.10;;;29.00;99.90;;;;;;5050199;28;20482;-67
2022/06/23 10:25:22;;;;;;;10.63;7.23;;;28.90;99.90;;;;;;5049648;28;20450;-68
2022/06/23 10:28:11;;;;;;;9.67;6.97;;;28.70;99.90;;;;;;5049315;28;20523;-68
2022/06/23 10:30:50;;;;;;;11.90;8.07;;;28.60;99.90;;;;;;5036880;28;20981;-68
2022/06/23 10:33:44;;;;;;;8.77;7.57;;;28.80;99.90;;;;;;5049131;28;20446;-68
2022/06/23 10:36:41;;;;;;;9.10;7.33;;;29.10;99.90;;;;;;5048849;28;20538;-68
2022/06/23 10:39:25;;;;;;;10.87;7.50;;;29.40;99.90;;;;;;5045803;28;20523;-68
2022/06/23 10:42:15;;;;;;;10.13;6.80;;;29.70;99.90;;;;;;5049536;28;20453;-72
2022/06/23 10:45:06;;;;;;;9.60;7.20;;;29.80;99.90;;;;;;5049367;28;20535;-74
2022/06/23 10:48:05;;;;;;;10.37;9.27;;;30.00;99.90;;;;;;5048517;28;20481;-71
2022/06/23 10:50:48;;;;;;;13.20;11.23;;;30.20;99.90;;;;;;5029738;28;20462;-74
2022/06/23 10:53:38;;;;;;;12.73;9.87;;;30.20;99.90;;;;;;5029642;28;21057;-74
2022/06/23 10:56:33;;;;;;;15.13;9.17;;;30.20;99.90;;;;;;5028859;28;20459;-75
2022/06/23 10:59:23;;;;;;;13.73;9.43;;;30.40;99.90;;;;;;5046272;28;20454;-75
2022/06/23 11:02:30;;;;;;;13.63;9.87;;;30.70;99.90;;;;;;5029841;28;20450;-73
2022/06/23 11:05:26;;;;;;;11.00;7.63;;;31.00;99.90;;;;;;5038763;28;20841;-72
2022/06/23 11:08:10;;;;;;;11.43;8.47;;;31.10;99.90;;;;;;5046633;28;20994;-67
2022/06/23 11:10:59;;;;;;;12.17;9.03;;;31.30;99.90;;;;;;5047097;28;20457;-71
2022/06/23 11:13:36;;;;;;;10.37;7.53;;;31.20;99.90;;;;;;5048854;28;20446;-66
2022/06/23 11:16:13;;;;;;;10.70;7.53;;;31.10;99.90;;;;;;5050030;28;20441;-68
2022/06/23 11:19:13;;;;;;;12.83;8.33;;;31.10;99.90;;;;;;5049285;28;20458;-67
2022/06/23 11:21:53;;;;;;;12.30;7.93;;;31.20;99.90;;;;;;5021701;28;20462;-68
2022/06/23 11:24:31;;;;;;;10.43;8.90;;;31.20;99.90;;;;;;5029700;28;20566;-69
2022/06/23 11:27:08;;;;;;;13.33;8.67;;;31.50;99.90;;;;;;5029601;28;20612;-68
2022/06/23 11:30:02;;;;;;;11.50;9.20;;;31.50;99.90;;;;;;5029128;28;20516;-68
2022/06/23 11:32:51;;;;;;;11.83;7.80;;;31.70;99.90;;;;;;5029165;28;20629;-68
2022/06/23 11:35:53;;;;;;;15.97;9.80;;;32.00;99.90;;;;;;5029451;28;20508;-68
2022/06/23 11:38:58;;;;;;;13.63;8.10;;;32.00;99.90;;;;;;5028986;28;20479;-67
2022/06/23 11:41:42;;;;;;;12.83;8.10;;;31.90;99.90;;;;;;4967671;28;20521;-68
2022/06/23 11:44:24;;;;;;;9.93;7.23;;;32.20;99.90;;;;;;4967588;28;20493;-67
2022/06/23 11:46:59;;;;;;;9.00;6.80;;;32.30;99.90;;;;;;5010492;28;20529;-67
2022/06/23 11:49:52;;;;;;;12.30;7.70;;;32.40;99.90;;;;;;5029671;28;20450;-67
2022/06/23 11:52:33;;;;;;;10.50;7.23;;;32.60;99.90;;;;;;5028617;28;20454;-68
2022/06/23 11:55:21;;;;;;;9.10;6.37;;;32.80;99.90;;;;;;5029109;28;20974;-67
2022/06/23 11:58:11;;;;;;;12.30;6.40;;;32.90;99.90;;;;;;5029296;28;20466;-68
2022/06/23 12:00:48;;;;;;;9.60;6.07;;;32.40;99.90;;;;;;5020020;28;20478;-67
2022/06/23 12:03:29;;;;;;;8.80;5.87;;;32.20;99.90;;;;;;5028829;28;20493;-67
2022/06/23 12:06:13;;;;;;;8.90;5.10;;;31.80;99.90;;;;;;5028851;28;20447;-67
2022/06/23 12:08:57;;;;;;;12.00;6.00;;;31.50;99.90;;;;;;5029708;28;20443;-68
2022/06/23 12:11:26;;;;;;;8.90;6.30;;;31.10;99.90;;;;;;5032666;28;20450;-69
2022/06/23 12:13:53;;;;;;;12.10;5.90;;;30.80;99.90;;;;;;5032719;28;20450;-68
2022/06/23 12:16:20;;;;;;;9.47;6.27;;;30.70;99.90;;;;;;5032413;28;20985;-68
2022/06/23 12:18:53;;;;;;;11.80;6.10;;;30.80;99.90;;;;;;5032518;28;20462;-68
2022/06/23 12:21:31;;;;;;;13.13;5.90;;;30.80;99.90;;;;;;5032116;28;20458;-68
2022/06/23 12:24:07;;;;;;;7.97;5.23;;;30.90;99.90;;;;;;5031914;28;20489;-68
2022/06/23 12:26:40;;;;;;;11.93;6.27;;;30.90;99.90;;;;;;5032273;28;20541;-67
2022/06/23 12:29:13;;;;;;;9.80;6.10;;;31.20;99.90;;;;;;5032438;28;20888;-68
2022/06/23 12:31:51;;;;;;;14.33;6.70;;;31.00;99.90;;;;;;5032293;28;20463;-68
2022/06/23 12:34:28;;;;;;;12.67;7.10;;;30.90;99.90;;;;;;5031976;28;20461;-67
2022/06/23 12:37:14;;;;;;;12.13;6.50;;;31.20;99.90;;;;;;5031862;28;20990;-67
2022/06/23 12:39:47;;;;;;;13.13;7.13;;;31.40;99.90;;;;;;5032228;28;20545;-67
2022/06/23 12:42:22;;;;;;;12.07;8.40;;;31.40;99.90;;;;;;5031751;28;20462;-67
2022/06/23 12:45:03;;;;;;;15.87;7.20;;;31.30;99.40;;;;;;5032279;28;20490;-67
2022/06/23 12:47:43;;;;;;;18.23;9.37;;;30.80;99.30;;;;;;5031871;28;20485;-67
2022/06/23 12:50:38;;;;;;;19.03;8.70;;;30.70;99.10;;;;;;5032275;28;20466;-67
2022/06/23 12:53:27;;;;;;;13.17;8.87;;;30.80;99.70;;;;;;5029003;28;20998;-68
2022/06/23 12:56:10;;;;;;;13.50;9.60;;;30.60;98.80;;;;;;5031577;28;20501;-67
2022/06/23 12:58:43;;;;;;;13.13;8.67;;;30.30;99.70;;;;;;5031824;28;20500;-68
2022/06/23 13:01:14;;;;;;;13.07;8.90;;;30.30;99.90;;;;;;5031806;28;20487;-68
2022/06/23 13:03:52;;;;;;;13.97;8.10;;;30.50;99.90;;;;;;5031695;28;20905;-68
2022/06/23 13:06:28;;;;;;;12.10;9.27;;;30.60;99.90;;;;;;5031712;28;20504;-67
2022/06/23 13:09:10;;;;;;;13.90;8.60;;;30.60;99.90;;;;;;5031783;28;20450;-68
2022/06/23 13:11:47;;;;;;;11.93;6.60;;;30.70;99.90;;;;;;5031151;28;20574;-68
2022/06/23 13:14:19;;;;;;;10.83;7.13;;;30.50;99.90;;;;;;5031011;28;20455;-68
2022/06/23 13:16:54;;;;;;;9.83;5.80;;;30.40;99.90;;;;;;5031462;28;20478;-68
2022/06/23 13:19:29;;;;;;;7.60;6.23;;;30.30;99.90;;;;;;5031347;28;20455;-67
2022/06/23 13:22:05;;;;;;;10.33;7.80;;;30.10;99.90;;;;;;5031285;28;20942;-67
2022/06/23 13:24:36;;;;;;;13.00;7.80;;;29.80;99.90;;;;;;5030986;28;20567;-68
2022/06/23 13:27:11;;;;;;;10.50;7.47;;;29.70;99.90;;;;;;5031198;28;20489;-67
2022/06/23 13:29:44;;;;;;;16.47;11.23;;;29.60;99.90;;;;;;5031337;28;20451;-68
2022/06/23 13:32:17;;;;;;;14.73;13.10;;;29.30;99.90;;;;;;5031464;28;20439;-68